Time;durP1;ratioP1;P1;durP2;ratioP2;P2;SDS_P1;SDS_P2;PMS_P1;PMS_P2;Temp;Humidity;BMP_temperature;BMP_pressure;BME280_temperature;BME280_humidity;BME280_pressure;Samples;Min_cycle;Max_cycle;Signal;HPM_P1;HPM_P2
2022/01/19 00:01:01;;;;;;;45.80;19.30;;;;;;;2.69;60.43;101576.44;5046877;28;20056;-73
2022/01/19 00:03:28;;;;;;;38.95;16.85;;;;;;;2.79;60.15;101574.50;5046879;28;20057;-73
2022/01/19 00:05:56;;;;;;;65.30;25.63;;;;;;;2.75;60.38;101562.41;5048025;28;20051;-77
2022/01/19 00:08:23;;;;;;;48.60;20.67;;;;;;;2.78;60.40;101573.66;5053301;28;20072;-72
2022/01/19 00:10:51;;;;;;;37.45;15.40;;;;;;;2.85;60.30;101575.25;5052144;28;20045;-74
2022/01/19 00:13:19;;;;;;;47.95;19.85;;;;;;;2.93;60.00;101571.63;5047339;28;20148;-76
2022/01/19 00:15:48;;;;;;;40.03;17.27;;;;;;;2.93;60.22;101571.63;5029496;28;20045;-70
2022/01/19 00:18:19;;;;;;;36.92;16.38;;;;;;;2.96;60.25;101564.59;5048056;28;20045;-73
2022/01/19 00:20:46;;;;;;;46.88;21.63;;;;;;;2.96;60.41;101571.59;5047778;28;20051;-73
2022/01/19 00:23:15;;;;;;;41.38;19.45;;;;;;;2.97;60.28;101555.03;5046595;28;20061;-72
2022/01/19 00:25:44;;;;;;;42.08;17.00;;;;;;;3.01;60.37;101544.50;5044890;28;20124;-74
2022/01/19 00:28:11;;;;;;;38.35;17.02;;;;;;;3.08;60.18;101536.53;5046760;28;20063;-75
2022/01/19 00:30:38;;;;;;;41.45;17.13;;;;;;;3.14;60.29;101534.66;5046597;28;20055;-74
2022/01/19 00:33:05;;;;;;;40.63;18.95;;;;;;;3.19;60.06;101531.97;5046112;28;20044;-73
2022/01/19 00:35:35;;;;;;;35.83;15.55;;;;;;;3.17;60.21;101529.38;5046382;28;20045;-74
2022/01/19 00:38:02;;;;;;;39.75;17.15;;;;;;;3.19;60.29;101540.66;5046050;28;20617;-72
2022/01/19 00:40:30;;;;;;;38.72;15.57;;;;;;;3.24;60.25;101536.19;5046632;28;20051;-76
2022/01/19 00:42:57;;;;;;;43.70;16.30;;;;;;;3.29;59.90;101535.22;5046183;28;20045;-72
2022/01/19 00:45:24;;;;;;;34.75;17.38;;;;;;;3.29;60.07;101538.69;5046374;28;20054;-74
2022/01/19 00:47:51;;;;;;;35.72;16.80;;;;;;;3.31;60.15;101530.81;5028641;28;20132;-74
2022/01/19 00:50:21;;;;;;;39.40;16.05;;;;;;;3.31;60.10;101523.00;5045694;28;20417;-72
2022/01/19 00:52:51;;;;;;;32.08;16.08;;;;;;;3.34;60.26;101521.16;5045796;28;20049;-71
2022/01/19 00:55:19;;;;;;;28.77;13.70;;;;;;;3.36;60.12;101534.19;5044217;28;20045;-76
2022/01/19 00:57:46;;;;;;;32.22;15.13;;;;;;;3.39;60.06;101535.00;5045728;28;21120;-75
2022/01/19 01:00:17;;;;;;;34.63;14.68;;;;;;;3.42;60.07;101524.50;5047281;28;20049;-74
2022/01/19 01:02:44;;;;;;;39.63;14.82;;;;;;;3.45;60.01;101520.94;5047433;28;20057;-73
2022/01/19 01:05:12;;;;;;;32.33;15.18;;;;;;;3.47;60.09;101513.91;5045857;28;20045;-75
2022/01/19 01:07:40;;;;;;;34.13;17.15;;;;;;;3.45;60.09;101502.66;5046032;28;20480;-72
2022/01/19 01:10:11;;;;;;;38.03;15.75;;;;;;;3.46;60.10;101493.94;5046246;28;20067;-72
2022/01/19 01:12:47;;;;;;;38.97;13.60;;;;;;;3.49;60.12;101493.84;5046243;28;20479;-75
2022/01/19 01:15:28;;;;;;;47.33;18.50;;;;;;;3.49;60.09;101483.41;5045395;28;20056;-74
2022/01/19 01:20:41;;;;;;;35.88;17.60;;;;;;;3.52;59.92;101485.94;4965987;28;20055;-76
2022/01/19 01:23:09;;;;;;;36.72;16.60;;;;;;;3.53;59.99;101479.84;4965223;28;20571;-75
2022/01/19 01:25:38;;;;;;;35.85;16.50;;;;;;;3.51;60.18;101479.03;4964488;28;20065;-73
2022/01/19 01:28:06;;;;;;;50.90;22.63;;;;;;;3.54;60.23;101473.69;4965904;28;20060;-72
2022/01/19 01:30:34;;;;;;;35.30;16.55;;;;;;;3.59;60.02;101453.56;4966544;28;20053;-73
2022/01/19 01:33:01;;;;;;;39.05;17.30;;;;;;;3.61;59.84;101443.91;4965792;28;20628;-74
2022/01/19 01:35:29;;;;;;;45.78;18.88;;;;;;;3.60;60.12;101446.56;4964740;28;20600;-73
2022/01/19 01:37:56;;;;;;;49.97;17.45;;;;;;;3.61;60.08;101441.31;4964978;28;20073;-78
2022/01/19 01:40:25;;;;;;;36.13;15.25;;;;;;;3.63;60.10;101426.44;4964065;28;20207;-75
2022/01/19 01:42:54;;;;;;;45.88;19.00;;;;;;;3.67;60.33;101429.00;4964601;28;20050;-76
2022/01/19 01:45:26;;;;;;;32.17;16.35;;;;;;;3.66;60.15;101425.53;4963875;28;20050;-76
2022/01/19 01:48:03;;;;;;;36.13;15.32;;;;;;;3.69;60.28;101419.34;4964452;28;20068;-75
2022/01/19 01:53:27;;;;;;;48.00;17.30;;;;;;;3.72;60.05;101398.38;4965949;28;20187;-73
2022/01/19 01:56:00;;;;;;;34.42;14.43;;;;;;;3.69;60.28;101401.06;4962668;28;20297;-72
2022/01/19 01:58:30;;;;;;;34.88;16.33;;;;;;;3.69;60.34;101382.78;5021729;28;20051;-71
2022/01/19 02:00:58;;;;;;;36.35;16.05;;;;;;;3.66;60.29;101370.66;5025793;28;20132;-71
2022/01/19 02:03:25;;;;;;;26.60;15.65;;;;;;;3.67;60.43;101361.91;5045406;28;20625;-74
2022/01/19 02:06:13;;;;;;;37.15;15.80;;;;;;;3.71;60.40;101360.06;5045562;28;20046;-73
2022/01/19 02:08:49;;;;;;;31.30;11.90;;;;;;;3.76;60.23;101363.44;5045141;28;20236;-73
2022/01/19 02:15:47;;;;;;;44.05;17.08;;;;;;;3.76;60.11;101368.66;5045969;28;20132;-72
2022/01/19 02:22:59;;;;;;;28.38;15.38;;;;;;;3.82;59.98;101373.75;4983961;28;20078;-74
2022/01/19 02:25:30;;;;;;;25.58;14.02;;;;;;;3.80;60.28;101372.94;4982365;28;20164;-72
2022/01/19 02:41:42;;;;;;;31.20;13.52;;;;;;;3.81;60.35;101348.50;4988478;28;20057;-73
2022/01/19 02:44:14;;;;;;;30.40;14.95;;;;;;;3.82;60.52;101350.22;4987089;28;20137;-72
2022/01/19 02:49:09;;;;;;;35.50;17.17;;;;;;;3.80;60.47;101333.72;4987729;28;20053;-71
2022/01/19 02:49:30;;;;;;;30.90;13.57;;;;;;;3.78;60.54;101330.28;4988022;28;20143;-75
2022/01/19 02:52:00;;;;;;;31.75;16.27;;;;;;;3.74;60.80;101315.59;4989102;28;20104;-80
2022/01/19 02:54:29;;;;;;;29.55;13.75;;;;;;;3.72;60.95;101312.16;4972360;28;20057;-77
2022/01/19 02:57:00;;;;;;;34.10;13.90;;;;;;;3.78;60.82;101317.22;5044464;28;20556;-79
2022/01/19 02:59:40;;;;;;;25.67;13.55;;;;;;;3.82;60.90;101303.19;5050711;28;20073;-77
2022/01/19 03:10:22;;;;;;;27.95;12.88;;;;;;;3.84;61.21;101285.69;5049326;28;20047;-77
2022/01/19 03:12:49;;;;;;;25.80;11.82;;;;;;;3.81;61.11;101280.53;5049008;28;20133;-74
2022/01/19 03:15:16;;;;;;;29.75;16.33;;;;;;;3.78;61.28;101273.66;5049302;28;20051;-76
2022/01/19 03:17:44;;;;;;;29.08;16.40;;;;;;;3.76;61.35;101256.28;5048938;28;20053;-75
2022/01/19 03:20:12;;;;;;;39.63;14.70;;;;;;;3.79;61.47;101257.06;5048736;28;20136;-76
2022/01/19 03:22:49;;;;;;;31.33;16.98;;;;;;;3.79;61.30;101245.75;5048512;28;20064;-73
2022/01/19 03:25:16;;;;;;;31.38;17.02;;;;;;;3.79;61.47;101241.38;5046846;28;20146;-76
2022/01/19 03:27:46;;;;;;;33.63;16.48;;;;;;;3.80;61.48;101243.13;5047919;28;20045;-72
2022/01/19 03:30:14;;;;;;;28.35;13.57;;;;;;;3.82;61.57;101238.69;5049883;28;20044;-77
2022/01/19 03:32:41;;;;;;;26.52;14.18;;;;;;;3.87;61.34;101230.75;5048203;28;20048;-75
2022/01/19 03:35:10;;;;;;;33.95;15.10;;;;;;;3.89;61.53;101226.31;5049006;28;20083;-74
2022/01/19 03:37:37;;;;;;;30.63;14.57;;;;;;;3.88;61.46;101223.75;5048027;28;20055;-75
2022/01/19 03:40:08;;;;;;;32.33;17.15;;;;;;;3.86;61.73;101230.78;5047985;28;20048;-74
2022/01/19 03:42:35;;;;;;;28.05;13.52;;;;;;;3.87;61.66;101227.25;5048688;28;20129;-73
2022/01/19 03:45:03;;;;;;;28.52;13.02;;;;;;;3.89;61.83;101218.47;5048854;28;20051;-72
2022/01/19 03:47:38;;;;;;;27.10;14.98;;;;;;;3.90;61.78;101220.16;5048633;28;20103;-71
2022/01/19 03:50:06;;;;;;;27.17;12.02;;;;;;;3.95;61.68;101209.59;5048451;28;20102;-73
2022/01/19 03:52:34;;;;;;;28.58;15.75;;;;;;;3.97;61.75;101208.63;5048717;28;20102;-75
2022/01/19 03:55:01;;;;;;;27.98;13.70;;;;;;;3.98;61.99;101189.44;5046334;28;20124;-73
2022/01/19 03:57:29;;;;;;;27.92;15.15;;;;;;;4.01;61.76;101196.31;5047828;28;20045;-72
2022/01/19 03:59:56;;;;;;;31.95;14.07;;;;;;;3.99;62.13;101198.97;5049942;28;20055;-75
2022/01/19 04:02:24;;;;;;;28.30;13.32;;;;;;;4.00;62.12;101184.19;5052022;28;20104;-75
2022/01/19 04:04:55;;;;;;;27.55;14.52;;;;;;;4.01;62.04;101181.50;5049253;28;20063;-73
2022/01/19 04:07:22;;;;;;;32.67;12.90;;;;;;;4.01;61.98;101191.94;5047006;28;20486;-72
2022/01/19 04:09:49;;;;;;;38.40;15.65;;;;;;;4.02;62.17;101184.97;5047509;28;20053;-72
2022/01/19 04:12:25;;;;;;;29.88;17.33;;;;;;;4.01;62.25;101180.66;5047796;28;20051;-75
2022/01/19 04:14:53;;;;;;;;;;;;;;;4.21;61.57;101175.69;5047545;28;20102;-75
2022/01/19 04:17:20;;;;;;;36.92;19.45;;;;;;;4.04;61.84;101177.09;5047256;28;19921;-73
2022/01/19 04:19:48;;;;;;;30.35;16.88;;;;;;;4.00;62.14;101156.28;5047425;28;20041;-72
2022/01/19 04:22:18;;;;;;;37.65;17.38;;;;;;;4.06;61.94;101154.38;5047078;28;20524;-75
2022/01/19 04:24:46;;;;;;;30.67;13.90;;;;;;;4.06;62.24;101149.16;5045530;28;20053;-74
2022/01/19 04:30:05;;;;;;;26.25;14.05;;;;;;;4.11;62.25;101140.25;5046655;28;20673;-76
2022/01/19 04:32:39;;;;;;;27.00;13.43;;;;;;;4.13;61.96;101137.59;5048136;28;20049;-72
2022/01/19 04:35:08;;;;;;;33.75;15.13;;;;;;;4.14;62.13;101136.69;5047524;28;20134;-76
2022/01/19 04:46:27;;;;;;;23.80;12.65;;;;;;;4.24;61.99;101135.50;4985929;28;20058;-74
2022/01/19 04:49:15;;;;;;;19.65;12.90;;;;;;;4.22;61.91;101126.84;4987015;28;20054;-74
2022/01/19 05:03:02;;;;;;;34.10;13.77;;;;;;;4.24;62.15;101117.19;4992097;28;20214;-74
2022/01/19 05:05:32;;;;;;;30.00;14.57;;;;;;;4.28;61.84;101105.72;5001422;28;20057;-73
2022/01/19 05:08:09;;;;;;;32.63;18.08;;;;;;;4.30;61.95;101111.75;5005478;28;20106;-76
2022/01/19 05:13:33;;;;;;;29.45;14.52;;;;;;;4.32;61.91;101107.34;5007595;28;20102;-74
2022/01/19 05:16:00;;;;;;;31.92;16.40;;;;;;;4.33;62.04;101100.34;5012550;28;20129;-75
2022/01/19 05:18:28;;;;;;;26.58;15.75;;;;;;;4.33;61.81;101098.56;5048095;28;20079;-76
2022/01/19 05:20:55;;;;;;;28.75;14.90;;;;;;;4.34;61.96;101099.41;5059202;28;20117;-76
2022/01/19 05:23:22;;;;;;;30.17;17.10;;;;;;;4.35;61.96;101093.28;5061269;28;20542;-73
2022/01/19 05:25:50;;;;;;;28.92;17.55;;;;;;;4.37;61.98;101101.94;5055058;28;20141;-74
2022/01/19 05:28:17;;;;;;;30.95;15.85;;;;;;;4.36;61.89;101100.25;5058486;28;20135;-76
2022/01/19 05:30:44;;;;;;;40.38;21.48;;;;;;;4.36;61.85;101095.88;5059574;28;20049;-75
2022/01/19 05:33:12;;;;;;;37.97;19.33;;;;;;;4.36;61.84;101095.03;5061352;28;20140;-77
2022/01/19 05:35:40;;;;;;;29.35;15.85;;;;;;;4.37;61.87;101099.31;5061234;28;20075;-75
2022/01/19 05:38:08;;;;;;;27.95;15.70;;;;;;;4.34;61.77;101084.59;5056324;28;20152;-76
2022/01/19 05:40:36;;;;;;;29.45;15.50;;;;;;;4.38;61.82;101095.81;5053882;28;20048;-74
2022/01/19 05:43:03;;;;;;;25.05;15.15;;;;;;;4.36;61.99;101090.63;5035134;28;20080;-79
2022/01/19 05:45:36;;;;;;;31.38;17.55;;;;;;;4.43;61.65;101087.81;5033050;28;20911;-77
2022/01/19 05:48:03;;;;;;;32.67;18.27;;;;;;;4.39;61.63;101089.66;5050579;28;20049;-74
2022/01/19 05:50:30;;;;;;;38.33;16.70;;;;;;;4.38;61.79;101086.19;5049559;28;20179;-72
2022/01/19 05:52:59;;;;;;;30.60;16.52;;;;;;;4.37;61.80;101084.47;5048122;28;20041;-78
2022/01/19 05:55:26;;;;;;;32.70;17.05;;;;;;;4.36;61.68;101084.56;5046945;28;20051;-71
2022/01/19 05:57:53;;;;;;;22.33;14.13;;;;;;;4.37;61.64;101086.25;5051190;28;20041;-74
2022/01/19 06:00:20;;;;;;;30.65;18.85;;;;;;;4.38;61.64;101072.28;5058588;28;20052;-73
2022/01/19 06:02:48;;;;;;;32.40;18.33;;;;;;;4.37;61.61;101066.16;5059595;28;20081;-76
2022/01/19 06:05:15;;;;;;;36.70;20.85;;;;;;;4.38;61.74;101067.91;5063830;28;20160;-73
2022/01/19 06:07:44;;;;;;;35.35;19.55;;;;;;;4.43;61.57;101075.59;5063661;28;20068;-72
2022/01/19 06:10:42;;;;;;;46.47;24.90;;;;;;;4.47;61.46;101071.13;5059908;28;20098;-78
2022/01/19 06:13:02;;;;;;;38.80;16.95;;;;;;;4.46;61.49;101058.94;5059983;28;20168;-73
2022/01/19 06:15:29;;;;;;;28.42;16.98;;;;;;;4.47;61.42;101055.41;5047477;28;20136;-76
2022/01/19 06:17:56;;;;;;;44.13;21.63;;;;;;;4.49;61.35;101051.00;5047971;28;20132;-72
2022/01/19 06:20:23;;;;;;;39.15;17.52;;;;;;;4.49;61.44;101043.16;5051939;28;20086;-79
2022/01/19 06:22:50;;;;;;;40.63;21.27;;;;;;;4.49;61.54;101038.75;5053116;28;20087;-78
2022/01/19 06:25:24;;;;;;;36.08;21.30;;;;;;;4.52;61.33;101036.03;5035929;28;20137;-80
2022/01/19 06:27:51;;;;;;;45.28;20.85;;;;;;;4.53;61.43;101040.34;5055120;28;20076;-74
2022/01/19 06:30:18;;;;;;;32.00;16.90;;;;;;;4.52;61.32;101033.44;5039534;28;20051;-74
2022/01/19 06:32:45;;;;;;;53.63;24.27;;;;;;;4.53;61.38;101031.66;5051316;28;20049;-77
2022/01/19 06:35:13;;;;;;;48.22;22.80;;;;;;;4.55;61.49;101033.28;5030152;28;20090;-77
2022/01/19 06:37:40;;;;;;;44.50;21.10;;;;;;;4.58;61.40;101027.13;5046062;28;20437;-76
2022/01/19 06:40:10;;;;;;;43.15;20.08;;;;;;;4.65;61.35;101023.38;5049013;28;20155;-79
2022/01/19 06:42:40;;;;;;;40.65;21.15;;;;;;;4.69;61.20;101024.13;5053617;28;20653;-78
2022/01/19 06:45:10;;;;;;;35.45;19.42;;;;;;;4.68;61.26;101017.16;5051030;28;20124;-77
2022/01/19 06:47:38;;;;;;;35.40;21.52;;;;;;;4.67;61.42;101023.31;5048602;28;20071;-76
2022/01/19 06:50:08;;;;;;;37.47;20.27;;;;;;;4.71;61.30;101017.91;5046864;28;20078;-78
2022/01/19 06:52:35;;;;;;;37.55;20.63;;;;;;;4.76;61.10;101016.00;5043886;28;20059;-76
2022/01/19 06:55:02;;;;;;;40.50;20.85;;;;;;;4.82;61.04;101014.91;5045068;28;20088;-77
2022/01/19 06:57:29;;;;;;;45.15;23.65;;;;;;;4.84;61.03;101004.38;5045445;28;20172;-74
2022/01/19 06:59:58;;;;;;;39.75;23.77;;;;;;;4.88;60.98;101005.97;5045737;28;20143;-75
2022/01/19 07:02:28;;;;;;;36.63;18.38;;;;;;;4.94;61.00;101000.53;5052750;28;20297;-77
2022/01/19 07:04:55;;;;;;;33.42;21.25;;;;;;;4.96;60.96;100998.72;5051580;28;20481;-76
2022/01/19 07:07:22;;;;;;;33.88;19.25;;;;;;;4.96;60.86;101001.31;5047024;28;20544;-76
2022/01/19 07:09:50;;;;;;;26.20;13.45;;;;;;;4.98;61.19;100996.88;5047238;28;20051;-79
2022/01/19 07:12:18;;;;;;;25.83;15.30;;;;;;;5.04;61.19;100999.28;5047262;28;20049;-79
2022/01/19 07:14:45;;;;;;;41.42;19.88;;;;;;;5.05;61.24;100990.50;5050235;28;20080;-76
2022/01/19 07:17:14;;;;;;;26.02;12.65;;;;;;;5.13;61.20;100990.22;5049965;28;20102;-76
2022/01/19 07:19:41;;;;;;;30.27;16.58;;;;;;;5.14;61.30;100987.53;5032943;28;20041;-76
2022/01/19 07:22:10;;;;;;;30.08;11.52;;;;;;;5.18;61.18;100990.88;5052048;28;20512;-79
2022/01/19 07:24:37;;;;;;;28.38;14.18;;;;;;;5.18;61.18;100990.88;5053664;28;20056;-79
2022/01/19 07:27:04;;;;;;;22.88;11.45;;;;;;;5.31;60.83;100986.03;5051672;28;20052;-75
2022/01/19 07:29:31;;;;;;;30.77;15.10;;;;;;;5.28;60.98;100991.41;5053587;28;20478;-81
2022/01/19 07:31:59;;;;;;;27.25;14.32;;;;;;;5.39;60.78;100993.59;5039101;28;20587;-77
2022/01/19 07:34:29;;;;;;;22.50;11.50;;;;;;;5.33;60.73;100973.72;5054043;28;20053;-76
2022/01/19 07:36:57;;;;;;;21.92;11.40;;;;;;;5.39;60.67;100983.97;5054722;28;20053;-75
2022/01/19 07:39:25;;;;;;;28.08;14.60;;;;;;;5.48;60.42;100978.38;5054946;28;20124;-79
2022/01/19 07:41:55;;;;;;;22.27;12.15;;;;;;;5.53;60.37;100979.03;5053022;28;20118;-78
2022/01/19 07:44:22;;;;;;;28.52;12.43;;;;;;;5.57;60.37;100977.16;5054948;28;20049;-76
2022/01/19 07:46:51;;;;;;;29.42;17.58;;;;;;;5.49;60.23;100979.22;5058028;28;20055;-73
2022/01/19 07:49:18;;;;;;;22.30;13.48;;;;;;;5.50;60.46;100976.53;5057728;28;20072;-77
2022/01/19 07:51:46;;;;;;;31.63;14.73;;;;;;;5.50;60.37;100975.69;5061707;28;20060;-76
2022/01/19 07:54:14;;;;;;;24.38;12.93;;;;;;;5.53;60.28;100971.19;5059316;28;20113;-76
2022/01/19 07:56:41;;;;;;;24.05;13.95;;;;;;;5.60;60.25;100973.53;5056753;28;20113;-75
2022/01/19 07:59:08;;;;;;;28.55;15.27;;;;;;;5.60;60.18;100974.41;5057525;28;20045;-74
2022/01/19 08:01:36;;;;;;;24.33;13.95;;;;;;;5.62;60.16;100967.34;5057022;28;20055;-78
2022/01/19 08:04:04;;;;;;;27.13;17.25;;;;;;;5.50;60.25;100965.22;5032105;28;20217;-74
2022/01/19 08:06:31;;;;;;;32.20;18.35;;;;;;;5.44;60.43;100958.44;5049294;28;20141;-74
2022/01/19 08:08:59;;;;;;;21.02;14.57;;;;;;;5.44;60.50;100954.97;5046497;28;20055;-75
2022/01/19 08:11:26;;;;;;;27.70;15.32;;;;;;;5.35;60.53;100951.81;5046443;28;20755;-74
2022/01/19 08:13:53;;;;;;;29.98;16.27;;;;;;;5.48;60.30;100951.31;5044677;28;20127;-77
2022/01/19 08:16:21;;;;;;;23.83;14.55;;;;;;;5.46;60.39;100942.69;5047443;28;20731;-74
2022/01/19 08:18:48;;;;;;;22.15;15.82;;;;;;;5.44;60.46;100947.97;5046085;28;20053;-76
2022/01/19 08:21:15;;;;;;;28.70;19.63;;;;;;;5.30;60.89;100942.44;5047042;28;20049;-74
2022/01/19 08:23:42;;;;;;;27.45;20.55;;;;;;;5.23;61.01;100935.72;5045806;28;20116;-74
2022/01/19 08:26:13;;;;;;;27.23;19.10;;;;;;;5.25;61.19;100949.59;5044198;28;20173;-78
2022/01/19 08:28:40;;;;;;;29.60;17.02;;;;;;;5.29;61.13;100944.16;5046218;28;20136;-74
2022/01/19 08:31:07;;;;;;;19.80;11.98;;;;;;;5.51;60.66;100941.56;5043961;28;20136;-75
2022/01/19 08:33:34;;;;;;;28.65;17.13;;;;;;;5.38;60.73;100937.72;5046538;28;20045;-73
2022/01/19 08:36:01;;;;;;;26.50;16.88;;;;;;;5.39;60.80;100925.50;5027045;28;20055;-75
2022/01/19 08:38:29;;;;;;;17.95;11.63;;;;;;;5.38;61.01;100934.25;5050143;28;20051;-75
2022/01/19 08:40:56;;;;;;;30.33;18.67;;;;;;;5.45;60.78;100927.84;5047235;28;20101;-76
2022/01/19 08:43:25;;;;;;;28.58;17.55;;;;;;;5.49;60.69;100926.81;5048530;28;20742;-76
2022/01/19 08:45:53;;;;;;;26.23;15.45;;;;;;;5.40;60.79;100932.44;5045279;28;20131;-76
2022/01/19 08:48:20;;;;;;;31.38;21.20;;;;;;;5.34;61.06;100913.41;5044874;28;20087;-75
2022/01/19 08:50:48;;;;;;;30.30;21.40;;;;;;;5.29;61.12;100912.75;5046433;28;20473;-76
2022/01/19 08:53:16;;;;;;;30.38;23.15;;;;;;;5.29;61.33;100923.22;5046776;28;20063;-75
2022/01/19 08:55:44;;;;;;;29.67;20.33;;;;;;;5.32;61.18;100919.63;5045740;28;20637;-77
2022/01/19 08:58:13;;;;;;;30.35;22.23;;;;;;;5.25;61.46;100915.56;5043624;28;20049;-78
2022/01/19 09:00:48;;;;;;;30.00;18.20;;;;;;;5.34;61.32;100909.94;5047416;28;20145;-75
2022/01/19 09:03:17;;;;;;;34.55;20.48;;;;;;;5.35;61.27;100911.66;5045342;28;20143;-77
2022/01/19 09:05:44;;;;;;;35.72;21.27;;;;;;;5.49;60.81;100896.25;5047423;28;20358;-74
2022/01/19 09:08:12;;;;;;;28.83;16.98;;;;;;;5.42;60.93;100905.28;5046715;28;20041;-78
2022/01/19 09:10:40;;;;;;;35.45;17.30;;;;;;;5.55;60.73;100905.63;5045419;28;20053;-76
2022/01/19 09:13:10;;;;;;;32.10;20.00;;;;;;;5.63;60.69;100905.28;5044339;28;20045;-79
2022/01/19 09:15:38;;;;;;;35.67;24.85;;;;;;;5.44;60.77;100903.44;5044821;28;20056;-75
2022/01/19 09:18:07;;;;;;;38.30;24.23;;;;;;;5.37;61.25;100901.97;5048153;28;20087;-76
2022/01/19 09:20:34;;;;;;;36.38;23.95;;;;;;;5.44;60.97;100905.19;5046234;28;20243;-74
2022/01/19 09:23:02;;;;;;;45.22;21.83;;;;;;;5.42;60.94;100897.41;5027480;28;20140;-76
2022/01/19 09:25:29;;;;;;;36.67;23.88;;;;;;;5.44;61.00;100902.56;5025020;28;20598;-76
2022/01/19 09:27:57;;;;;;;36.25;22.50;;;;;;;5.42;61.11;100893.91;5043770;28;20694;-75
2022/01/19 09:30:25;;;;;;;36.83;22.65;;;;;;;5.54;60.80;100883.78;5044573;28;20044;-75
2022/01/19 09:33:07;;;;;;;34.75;19.63;;;;;;;5.53;60.88;100876.00;5027534;28;20056;-77
2022/01/19 09:35:52;;;;;;;43.20;24.75;;;;;;;5.61;60.68;100866.03;5044291;28;20053;-74
2022/01/19 09:38:20;;;;;;;36.88;19.83;;;;;;;5.69;60.28;100861.34;5046304;28;20131;-81
2022/01/19 09:40:47;;;;;;;34.47;18.65;;;;;;;5.88;60.06;100850.91;5049021;28;20041;-76
2022/01/19 09:43:17;;;;;;;36.08;23.38;;;;;;;5.96;59.84;100850.63;5045883;28;20132;-79
2022/01/19 09:45:44;;;;;;;39.65;24.77;;;;;;;5.99;59.65;100841.75;5043130;28;20085;-76
2022/01/19 09:48:12;;;;;;;32.58;17.20;;;;;;;6.04;59.49;100843.25;5044824;28;20041;-76
2022/01/19 09:50:41;;;;;;;45.28;23.63;;;;;;;6.16;59.62;100843.63;5045619;28;20080;-78
2022/01/19 09:53:09;;;;;;;37.35;20.95;;;;;;;6.21;59.29;100839.91;5045144;28;20509;-77
2022/01/19 09:55:40;;;;;;;33.25;17.23;;;;;;;6.26;59.31;100830.03;5042643;28;20425;-78
2022/01/19 09:58:09;;;;;;;31.00;16.92;;;;;;;6.22;58.91;100838.97;5045931;28;20106;-78
2022/01/19 10:00:36;;;;;;;32.13;19.70;;;;;;;6.16;58.92;100839.25;5044998;28;20051;-77
2022/01/19 10:03:15;;;;;;;22.55;14.55;;;;;;;6.24;58.99;100833.66;5044316;28;20143;-79
2022/01/19 10:05:58;;;;;;;33.72;18.15;;;;;;;6.32;58.71;100823.69;5044494;28;20122;-76
2022/01/19 10:08:29;;;;;;;32.28;21.20;;;;;;;6.20;58.49;100822.44;5030103;28;20632;-78
2022/01/19 10:11:18;;;;;;;28.90;19.23;;;;;;;6.27;58.57;100825.66;5049276;28;20084;-80
2022/01/19 10:19:19;;;;;;;;;;;;;;;6.39;57.93;100813.72;5044631;28;20055;-78
2022/01/19 10:22:04;;;;;;;29.73;18.75;;;;;;;6.21;58.29;100818.03;5046834;28;19921;-77
2022/01/19 10:24:41;;;;;;;29.17;15.82;;;;;;;6.27;58.34;100818.63;5028334;28;20072;-77
2022/01/19 10:27:30;;;;;;;32.63;21.88;;;;;;;6.18;58.15;100805.94;5026828;28;20109;-73
2022/01/19 10:30:14;;;;;;;26.80;16.83;;;;;;;6.01;58.68;100805.81;5057213;28;20049;-77
2022/01/19 10:32:46;;;;;;;35.47;26.67;;;;;;;5.90;58.89;100799.25;5051897;28;20069;-79
2022/01/19 10:35:18;;;;;;;47.15;22.52;;;;;;;6.05;58.76;100794.28;5054297;28;20052;-78
2022/01/19 10:38:06;;;;;;;27.50;15.65;;;;;;;6.10;58.56;100800.16;5051068;28;20219;-78
2022/01/19 10:40:34;;;;;;;29.80;18.23;;;;;;;6.15;58.53;100792.94;5052202;28;20044;-82
2022/01/19 10:43:22;;;;;;;34.50;23.88;;;;;;;6.13;58.39;100786.94;5048475;28;20052;-79
2022/01/19 10:45:50;;;;;;;31.83;18.50;;;;;;;6.04;58.65;100795.22;5043843;28;20071;-79
2022/01/19 10:48:31;;;;;;;34.53;23.45;;;;;;;6.03;58.76;100785.63;5034761;28;20226;-79
2022/01/19 10:51:07;;;;;;;32.15;18.40;;;;;;;6.13;58.48;100777.28;5050180;28;20053;-79
2022/01/19 10:53:36;;;;;;;34.35;22.02;;;;;;;6.25;58.21;100772.41;5049980;28;20053;-80
2022/01/19 10:56:07;;;;;;;39.05;25.25;;;;;;;6.21;58.22;100771.69;5049859;28;20562;-79
2022/01/19 10:58:35;;;;;;;45.45;27.40;;;;;;;6.18;58.32;100769.22;5049205;28;20087;-76
2022/01/19 11:01:07;;;;;;;29.85;18.83;;;;;;;6.28;58.16;100765.25;5053119;28;20164;-78
2022/01/19 11:03:34;;;;;;;38.55;22.42;;;;;;;6.39;57.77;100753.38;5036769;28;20133;-79
2022/01/19 11:06:02;;;;;;;33.60;19.75;;;;;;;6.16;57.77;100747.44;5056059;28;20107;-77
2022/01/19 11:08:30;;;;;;;35.33;23.85;;;;;;;6.13;58.17;100750.19;5056893;28;20103;-78
2022/01/19 11:11:02;;;;;;;36.53;21.13;;;;;;;6.23;58.15;100741.00;5061395;28;20053;-79
2022/01/19 11:13:34;;;;;;;42.15;27.27;;;;;;;6.32;57.89;100745.81;5059836;28;20117;-78
2022/01/19 11:16:03;;;;;;;42.00;24.27;;;;;;;6.26;58.06;100735.59;5054048;28;20637;-75
2022/01/19 11:18:32;;;;;;;49.63;24.45;;;;;;;6.37;57.85;100729.84;5052796;28;20143;-79
2022/01/19 11:21:03;;;;;;;38.28;22.85;;;;;;;6.38;57.83;100728.94;5064586;28;20041;-78
2022/01/19 11:23:37;;;;;;;43.03;20.13;;;;;;;6.47;57.63;100728.47;5067191;28;20061;-78
2022/01/19 11:26:11;;;;;;;50.13;29.17;;;;;;;6.59;57.50;100721.81;5065460;28;20060;-77
2022/01/19 11:28:42;;;;;;;42.50;22.40;;;;;;;6.65;57.29;100721.50;5051601;28;20053;-78
2022/01/19 11:31:13;;;;;;;35.42;27.40;;;;;;;6.46;57.28;100710.19;5030652;28;20048;-79
2022/01/19 11:33:47;;;;;;;32.97;23.70;;;;;;;6.51;57.35;100703.78;5049759;28;20114;-78
2022/01/19 11:36:23;;;;;;;43.38;25.55;;;;;;;6.64;57.37;100698.78;5001101;28;20056;-77
2022/01/19 11:38:53;;;;;;;38.40;19.65;;;;;;;6.72;57.00;100692.31;5052084;28;20140;-81
2022/01/19 11:41:41;;;;;;;41.72;22.83;;;;;;;6.83;57.02;100687.41;5050526;28;20480;-78
2022/01/19 11:44:11;;;;;;;36.45;22.27;;;;;;;6.83;56.55;100683.00;5048075;28;20069;-78
2022/01/19 11:46:43;;;;;;;37.92;20.92;;;;;;;6.81;56.76;100682.22;5046866;28;20061;-79
2022/01/19 11:49:13;;;;;;;38.90;20.88;;;;;;;6.74;56.89;100677.34;5045846;28;20654;-77
2022/01/19 11:51:42;;;;;;;40.95;25.95;;;;;;;6.69;57.01;100672.31;5046646;28;20096;-77
2022/01/19 11:54:13;;;;;;;31.83;21.20;;;;;;;6.71;56.83;100667.84;5047525;28;20059;-78
2022/01/19 11:57:08;;;;;;;29.98;16.75;;;;;;;6.80;57.05;100669.16;5045674;28;20147;-80
2022/01/19 12:00:21;;;;;;;36.67;21.48;;;;;;;6.87;56.78;100652.19;5047590;28;20084;-77
2022/01/19 12:02:54;;;;;;;46.55;27.65;;;;;;;6.74;56.52;100654.56;5046173;28;20063;-78
2022/01/19 12:05:26;;;;;;;33.92;19.13;;;;;;;6.69;56.72;100648.69;5046430;28;20080;-76
2022/01/19 12:07:59;;;;;;;37.72;20.25;;;;;;;6.63;56.88;100639.38;5046413;28;20049;-79
2022/01/19 12:10:57;;;;;;;36.03;21.65;;;;;;;6.63;56.96;100636.75;5046525;28;20127;-79
2022/01/19 12:16:55;;;;;;;45.25;24.77;;;;;;;6.57;57.10;100634.44;4988745;28;20058;-77
2022/01/19 12:19:28;;;;;;;33.53;19.48;;;;;;;6.55;56.78;100615.25;4996038;28;20489;-77
2022/01/19 12:24:58;;;;;;;34.60;17.17;;;;;;;6.50;56.94;100605.00;4992664;28;20312;-76
2022/01/19 12:27:29;;;;;;;35.83;22.00;;;;;;;6.42;56.89;100595.81;4986087;28;20454;-77
2022/01/19 12:30:10;;;;;;;34.40;20.02;;;;;;;6.42;57.03;100601.06;4984623;28;20058;-77
2022/01/19 12:32:41;;;;;;;38.33;22.30;;;;;;;6.39;57.03;100588.97;4934626;28;20050;-76
2022/01/19 12:35:13;;;;;;;40.80;23.27;;;;;;;6.39;57.13;100588.09;4967113;28;20189;-78
2022/01/19 12:37:46;;;;;;;37.42;21.55;;;;;;;6.40;56.94;100581.94;4964289;28;20071;-78
2022/01/19 12:40:36;;;;;;;43.90;22.58;;;;;;;6.27;57.12;100576.44;4964409;28;20114;-82
2022/01/19 12:43:05;;;;;;;36.65;19.25;;;;;;;6.27;57.17;100568.56;4964495;28;20118;-79
2022/01/19 12:45:37;;;;;;;43.28;21.88;;;;;;;6.28;57.20;100571.13;4965157;28;20080;-78